Palo, Michigan
Current Conditions -  °F | °C
As of 11:13 PM on Sunday 21 Dec 2014 (Local Time) from KY70 Reporting Station
Haze Haze  
Wind Chill: 21°   Ceiling: Unl
Heat Index: 29°   Visibility: 5mi
Dew Point: 27°   Wind: 9mph
Humidity: 90%   Direction: 150°SSE
Pressure: 30.12"   Gusts: NA
Location:  43.11°N, 84.99°W
Report Text: KY70 220413Z AUTO 15008KT 5SM BR CLR M01/M03 A3012 RMK AO2 T10151029
Loading
Personal Weather Stations






























Interactive Weather Map New forecast layout! Learn more

10-Day Weather Forecast

Advertisements
Track Severe Weather on mobile